Липецк

СКИДКИ НА СМАРТФОНЫ!

Карта отелей и гостиниц, располагающихся рядом с аэропортом Липецк :

Липецк Липецкая область 52° 42' 11.7" N, 39° 32' 15.9" E
Код аэродрома ИКАО
UUOL
Код аэродрома RU
УУОЛ
Координаты
N52.70325° E039.53775°
Превышение над уровнем моря
178
Основная полоса
15/33
Курс магнитный
150,3/330,3
Длина основной ВПП
2300
Ширина основной ВПП
48
Покрытие основной ВПП
Твёрдое (бетон)
Освещение ВПП
Постоянное
Тип: 
Аэродром
Класс аэродрома: 
Международный
Принадлежность: 
ГА
Статус: 
Действующий
Сайт: 
http://lipetsk-airport.ru/
E-mail аэродрома: 
airport@lipetsk.ru
Страна: 
Россия
Регион: 
Липецкая область
Дополнительная информация: 
Оператор: областное государственное казенное предприятие "Липецкий аэропорт".
Погода: 

Авиационная погода в Липецке

Регион: 
Погода METAR: 
UUOL 091230Z 07004MPS CAVOK 29/13 Q1018 R33/090060 NOSIG
Время наблюдения
2022-08-09T12:30:00Z
Температура C
29.0
Точка росы
13.0
Направление ветра
70
Скорость ветра (узлы)
8
Метео видимость
6.21
Облачность
CAVOK
Нижняя граница облачности (футы)
Явления погоды
Условия полета
VFR
Аэропорт подробнее: 

Скидки на навигаторы!

Найти трансфер

С помощью этой формы Вы можете найти трансфер из аэропорта Липецк в город, аэропорт или вокзал:

Погода в аэропортах:

Авиационная погода в Ботсфьорде

Регион: 
Погода METAR: 
ENBS 091220Z AUTO 26014KT 9999 -RA FEW038/// OVC064/// 13/08 Q1015
Время наблюдения
2022-08-09T12:20:00Z
Температура C
13.0
Точка росы
8.0
Направление ветра
260
Скорость ветра (узлы)
14
Метео видимость
6.21
Облачность
FEW
OVC
Нижняя граница облачности (футы)
3800
6400
Явления погоды
-RA
Условия полета
VFR
FEW – незначительная облачность; OVC – сплошная облачность;
-RA - слабый дождь;

Авиационная погода в Нижнем Новгороде

Регион: 
Погода METAR: 
UWGG 091230Z 35003MPS 9999 -SHRA SCT040CB 22/21 Q1020 R36R/190060 TEMPO -TSRA
Время наблюдения
2022-08-09T12:30:00Z
Температура C
22.0
Точка росы
21.0
Направление ветра
350
Скорость ветра (узлы)
6
Метео видимость
6.21
Облачность
SCT
Нижняя граница облачности (футы)
4000
Явления погоды
-SHRA
Условия полета
VFR
Аэропорт подробнее: 
SCT – разбросанная отдельная облачность;
-SHRA - слабый ливневой дождь;

Авиационная погода в Уфе

Регион: 
Погода METAR: 
UWUU 091230Z 36009MPS 330V030 9999 TS BKN040CB 28/16 Q1017 R32L/0///60 NOSIG
Время наблюдения
2022-08-09T12:30:00Z
Температура C
28.0
Точка росы
16.0
Направление ветра
360
Скорость ветра (узлы)
17
Метео видимость
6.21
Облачность
BKN
Нижняя граница облачности (футы)
4000
Явления погоды
TS
Условия полета
VFR
Аэропорт подробнее: 
BKN – значительная (рассеянная, разорванная) облачность;

Авиационная погода в Берлевоге

Регион: 
Погода METAR: 
ENBV 091220Z AUTO 25013KT 9999 -RA BKN086 OVC118 16/08 Q1015
Время наблюдения
2022-08-09T12:20:00Z
Температура C
16.0
Точка росы
8.0
Направление ветра
250
Скорость ветра (узлы)
13
Метео видимость
6.21
Облачность
BKN
OVC
Нижняя граница облачности (футы)
8600
11800
Явления погоды
-RA
Условия полета
VFR
BKN – значительная (рассеянная, разорванная) облачность; OVC – сплошная облачность;
-RA - слабый дождь;